sensor_id;sensor_type;location;lat;lon;timestamp;P1;durP1;ratioP1;P2;durP2;ratioP2
65915;SDS011;52693;52.016;5.424;2022-08-19T00:01:55;0.17;;;0.17;;
65915;SDS011;52693;52.016;5.424;2022-08-19T00:04:25;0.05;;;0.05;;
65915;SDS011;52693;52.016;5.424;2022-08-19T00:06:52;0.70;;;0.10;;
65915;SDS011;52693;52.016;5.424;2022-08-19T00:09:20;0.10;;;0.10;;
65915;SDS011;52693;52.016;5.424;2022-08-19T00:11:46;0.13;;;0.13;;
65915;SDS011;52693;52.016;5.424;2022-08-19T00:14:14;0.25;;;0.25;;
65915;SDS011;52693;52.016;5.424;2022-08-19T00:16:42;0.10;;;0.10;;
65915;SDS011;52693;52.016;5.424;2022-08-19T00:19:09;0.10;;;0.10;;
65915;SDS011;52693;52.016;5.424;2022-08-19T00:21:36;0.65;;;0.65;;
65915;SDS011;52693;52.016;5.424;2022-08-19T00:24:06;0.52;;;0.47;;
65915;SDS011;52693;52.016;5.424;2022-08-19T00:27:08;0.17;;;0.17;;
65915;SDS011;52693;52.016;5.424;2022-08-19T00:29:51;5.90;;;0.75;;
65915;SDS011;52693;52.016;5.424;2022-08-19T00:32:18;0.25;;;0.25;;
65915;SDS011;52693;52.016;5.424;2022-08-19T00:34:44;0.30;;;0.30;;
65915;SDS011;52693;52.016;5.424;2022-08-19T00:37:13;0.38;;;0.38;;
65915;SDS011;52693;52.016;5.424;2022-08-19T00:39:39;0.00;;;0.00;;
65915;SDS011;52693;52.016;5.424;2022-08-19T00:42:06;0.10;;;0.10;;
65915;SDS011;52693;52.016;5.424;2022-08-19T00:44:32;0.20;;;0.20;;
65915;SDS011;52693;52.016;5.424;2022-08-19T00:46:59;0.30;;;0.30;;
65915;SDS011;52693;52.016;5.424;2022-08-19T00:49:30;0.85;;;0.85;;
65915;SDS011;52693;52.016;5.424;2022-08-19T00:52:09;0.30;;;0.30;;
65915;SDS011;52693;52.016;5.424;2022-08-19T00:54:38;0.77;;;0.77;;
65915;SDS011;52693;52.016;5.424;2022-08-19T00:57:06;0.17;;;0.17;;
65915;SDS011;52693;52.016;5.424;2022-08-19T00:59:34;0.30;;;0.30;;
65915;SDS011;52693;52.016;5.424;2022-08-19T01:02:22;0.43;;;0.43;;
65915;SDS011;52693;52.016;5.424;2022-08-19T01:04:48;0.40;;;0.40;;
65915;SDS011;52693;52.016;5.424;2022-08-19T01:07:15;0.20;;;0.20;;
65915;SDS011;52693;52.016;5.424;2022-08-19T01:09:45;0.80;;;0.55;;
65915;SDS011;52693;52.016;5.424;2022-08-19T01:12:11;0.75;;;0.45;;
65915;SDS011;52693;52.016;5.424;2022-08-19T01:14:38;0.30;;;0.30;;
65915;SDS011;52693;52.016;5.424;2022-08-19T01:17:07;0.57;;;0.43;;
65915;SDS011;52693;52.016;5.424;2022-08-19T01:19:35;0.30;;;0.30;;
65915;SDS011;52693;52.016;5.424;2022-08-19T01:24:42;0.20;;;0.13;;
65915;SDS011;52693;52.016;5.424;2022-08-19T01:27:15;0.75;;;0.15;;
65915;SDS011;52693;52.016;5.424;2022-08-19T01:29:43;0.80;;;0.80;;
65915;SDS011;52693;52.016;5.424;2022-08-19T01:32:12;0.22;;;0.22;;
65915;SDS011;52693;52.016;5.424;2022-08-19T01:34:59;1.17;;;0.68;;
65915;SDS011;52693;52.016;5.424;2022-08-19T01:37:28;0.60;;;0.60;;
65915;SDS011;52693;52.016;5.424;2022-08-19T01:39:56;0.10;;;0.10;;
65915;SDS011;52693;52.016;5.424;2022-08-19T01:42:23;0.20;;;0.20;;
65915;SDS011;52693;52.016;5.424;2022-08-19T01:44:55;0.47;;;0.47;;
65915;SDS011;52693;52.016;5.424;2022-08-19T01:47:22;0.05;;;0.05;;
65915;SDS011;52693;52.016;5.424;2022-08-19T01:49:48;0.98;;;0.50;;
65915;SDS011;52693;52.016;5.424;2022-08-19T01:52:15;0.10;;;0.10;;
65915;SDS011;52693;52.016;5.424;2022-08-19T01:54:41;0.30;;;0.30;;
65915;SDS011;52693;52.016;5.424;2022-08-19T01:57:11;0.00;;;0.00;;
65915;SDS011;52693;52.016;5.424;2022-08-19T01:59:39;0.20;;;0.20;;
65915;SDS011;52693;52.016;5.424;2022-08-19T02:02:06;0.30;;;0.30;;
65915;SDS011;52693;52.016;5.424;2022-08-19T02:04:36;0.03;;;0.03;;
65915;SDS011;52693;52.016;5.424;2022-08-19T02:07:04;0.10;;;0.10;;
65915;SDS011;52693;52.016;5.424;2022-08-19T02:09:31;0.20;;;0.20;;
65915;SDS011;52693;52.016;5.424;2022-08-19T02:11:57;0.35;;;0.35;;
65915;SDS011;52693;52.016;5.424;2022-08-19T02:14:24;0.20;;;0.10;;
65915;SDS011;52693;52.016;5.424;2022-08-19T02:16:50;0.30;;;0.25;;
65915;SDS011;52693;52.016;5.424;2022-08-19T02:19:17;0.80;;;0.80;;
65915;SDS011;52693;52.016;5.424;2022-08-19T02:21:43;0.10;;;0.10;;
65915;SDS011;52693;52.016;5.424;2022-08-19T02:24:10;0.20;;;0.20;;
65915;SDS011;52693;52.016;5.424;2022-08-19T02:26:36;0.10;;;0.10;;
65915;SDS011;52693;52.016;5.424;2022-08-19T02:29:02;0.20;;;0.20;;
65915;SDS011;52693;52.016;5.424;2022-08-19T02:31:29;0.22;;;0.22;;
65915;SDS011;52693;52.016;5.424;2022-08-19T02:33:56;0.10;;;0.10;;
65915;SDS011;52693;52.016;5.424;2022-08-19T02:36:23;0.10;;;0.10;;
65915;SDS011;52693;52.016;5.424;2022-08-19T02:38:50;0.57;;;0.57;;
65915;SDS011;52693;52.016;5.424;2022-08-19T02:41:25;0.17;;;0.17;;
65915;SDS011;52693;52.016;5.424;2022-08-19T02:43:53;0.40;;;0.30;;
65915;SDS011;52693;52.016;5.424;2022-08-19T02:46:39;0.30;;;0.30;;
65915;SDS011;52693;52.016;5.424;2022-08-19T02:49:06;0.50;;;0.50;;
65915;SDS011;52693;52.016;5.424;2022-08-19T02:51:34;0.20;;;0.20;;
65915;SDS011;52693;52.016;5.424;2022-08-19T02:54:01;0.10;;;0.10;;
65915;SDS011;52693;52.016;5.424;2022-08-19T02:56:28;0.10;;;0.10;;
65915;SDS011;52693;52.016;5.424;2022-08-19T02:58:54;0.10;;;0.10;;
65915;SDS011;52693;52.016;5.424;2022-08-19T03:03:47;0.25;;;0.25;;
65915;SDS011;52693;52.016;5.424;2022-08-19T03:06:14;0.10;;;0.10;;
65915;SDS011;52693;52.016;5.424;2022-08-19T03:08:42;0.80;;;0.68;;
65915;SDS011;52693;52.016;5.424;2022-08-19T03:11:12;0.40;;;0.40;;
65915;SDS011;52693;52.016;5.424;2022-08-19T03:13:39;0.98;;;0.50;;
65915;SDS011;52693;52.016;5.424;2022-08-19T03:16:06;0.77;;;0.77;;
65915;SDS011;52693;52.016;5.424;2022-08-19T03:18:32;0.10;;;0.10;;
65915;SDS011;52693;52.016;5.424;2022-08-19T03:21:00;0.28;;;0.28;;
65915;SDS011;52693;52.016;5.424;2022-08-19T03:23:26;0.35;;;0.35;;
65915;SDS011;52693;52.016;5.424;2022-08-19T03:25:53;0.30;;;0.30;;
65915;SDS011;52693;52.016;5.424;2022-08-19T03:28:40;0.43;;;0.35;;
65915;SDS011;52693;52.016;5.424;2022-08-19T03:31:13;0.10;;;0.10;;
65915;SDS011;52693;52.016;5.424;2022-08-19T03:34:00;0.52;;;0.38;;
65915;SDS011;52693;52.016;5.424;2022-08-19T03:36:26;0.03;;;0.03;;
65915;SDS011;52693;52.016;5.424;2022-08-19T03:38:55;0.10;;;0.10;;
65915;SDS011;52693;52.016;5.424;2022-08-19T03:41:26;0.10;;;0.10;;
65915;SDS011;52693;52.016;5.424;2022-08-19T03:44:11;1.23;;;1.20;;
65915;SDS011;52693;52.016;5.424;2022-08-19T03:46:44;0.17;;;0.17;;
65915;SDS011;52693;52.016;5.424;2022-08-19T03:49:10;0.20;;;0.20;;
65915;SDS011;52693;52.016;5.424;2022-08-19T03:51:40;0.20;;;0.20;;
65915;SDS011;52693;52.016;5.424;2022-08-19T03:54:08;0.00;;;0.00;;
65915;SDS011;52693;52.016;5.424;2022-08-19T03:56:35;0.28;;;0.28;;
65915;SDS011;52693;52.016;5.424;2022-08-19T03:59:02;0.10;;;0.10;;
65915;SDS011;52693;52.016;5.424;2022-08-19T04:01:29;0.20;;;0.20;;
65915;SDS011;52693;52.016;5.424;2022-08-19T04:04:00;0.20;;;0.20;;
65915;SDS011;52693;52.016;5.424;2022-08-19T04:06:31;0.40;;;0.40;;
65915;SDS011;52693;52.016;5.424;2022-08-19T04:08:58;0.55;;;0.55;;
65915;SDS011;52693;52.016;5.424;2022-08-19T04:11:26;0.10;;;0.10;;
65915;SDS011;52693;52.016;5.424;2022-08-19T04:14:10;0.43;;;0.43;;
65915;SDS011;52693;52.016;5.424;2022-08-19T04:16:37;0.40;;;0.40;;
65915;SDS011;52693;52.016;5.424;2022-08-19T04:19:04;0.22;;;0.22;;
65915;SDS011;52693;52.016;5.424;2022-08-19T04:21:32;0.10;;;0.10;;
65915;SDS011;52693;52.016;5.424;2022-08-19T04:24:01;0.20;;;0.20;;
65915;SDS011;52693;52.016;5.424;2022-08-19T04:26:33;0.28;;;0.28;;
65915;SDS011;52693;52.016;5.424;2022-08-19T04:31:27;0.52;;;0.43;;
65915;SDS011;52693;52.016;5.424;2022-08-19T04:33:54;0.20;;;0.20;;
65915;SDS011;52693;52.016;5.424;2022-08-19T04:36:24;0.13;;;0.13;;
65915;SDS011;52693;52.016;5.424;2022-08-19T04:38:55;0.20;;;0.20;;
65915;SDS011;52693;52.016;5.424;2022-08-19T04:44:24;0.00;;;0.00;;
65915;SDS011;52693;52.016;5.424;2022-08-19T04:46:52;0.10;;;0.10;;
65915;SDS011;52693;52.016;5.424;2022-08-19T04:49:19;0.10;;;0.10;;
65915;SDS011;52693;52.016;5.424;2022-08-19T04:51:49;0.55;;;0.30;;
65915;SDS011;52693;52.016;5.424;2022-08-19T04:54:17;0.28;;;0.28;;
65915;SDS011;52693;52.016;5.424;2022-08-19T04:57:03;0.40;;;0.40;;
65915;SDS011;52693;52.016;5.424;2022-08-19T04:59:32;0.43;;;0.28;;
65915;SDS011;52693;52.016;5.424;2022-08-19T05:01:59;2.83;;;0.63;;
65915;SDS011;52693;52.016;5.424;2022-08-19T05:04:26;0.35;;;0.35;;
65915;SDS011;52693;52.016;5.424;2022-08-19T05:06:52;0.32;;;0.32;;
65915;SDS011;52693;52.016;5.424;2022-08-19T05:09:26;0.25;;;0.25;;
65915;SDS011;52693;52.016;5.424;2022-08-19T05:12:04;0.47;;;0.47;;
65915;SDS011;52693;52.016;5.424;2022-08-19T05:14:30;0.10;;;0.10;;
65915;SDS011;52693;52.016;5.424;2022-08-19T05:16:57;0.63;;;0.32;;
65915;SDS011;52693;52.016;5.424;2022-08-19T05:19:43;0.22;;;0.22;;
65915;SDS011;52693;52.016;5.424;2022-08-19T05:22:28;2.10;;;0.82;;
65915;SDS011;52693;52.016;5.424;2022-08-19T05:25:05;0.17;;;0.17;;
65915;SDS011;52693;52.016;5.424;2022-08-19T05:27:38;0.45;;;0.45;;
65915;SDS011;52693;52.016;5.424;2022-08-19T05:30:05;0.45;;;0.45;;
65915;SDS011;52693;52.016;5.424;2022-08-19T05:32:31;0.30;;;0.30;;
65915;SDS011;52693;52.016;5.424;2022-08-19T05:34:57;0.28;;;0.28;;
65915;SDS011;52693;52.016;5.424;2022-08-19T05:37:24;1.90;;;0.88;;
65915;SDS011;52693;52.016;5.424;2022-08-19T05:39:53;0.17;;;0.17;;
65915;SDS011;52693;52.016;5.424;2022-08-19T05:42:21;0.73;;;0.25;;
65915;SDS011;52693;52.016;5.424;2022-08-19T05:44:49;0.10;;;0.10;;
65915;SDS011;52693;52.016;5.424;2022-08-19T05:47:16;0.40;;;0.40;;
65915;SDS011;52693;52.016;5.424;2022-08-19T05:49:42;0.80;;;0.68;;
65915;SDS011;52693;52.016;5.424;2022-08-19T05:52:13;0.10;;;0.10;;
65915;SDS011;52693;52.016;5.424;2022-08-19T05:54:44;0.05;;;0.05;;
65915;SDS011;52693;52.016;5.424;2022-08-19T05:57:16;0.30;;;0.30;;
65915;SDS011;52693;52.016;5.424;2022-08-19T05:59:43;0.15;;;0.15;;
65915;SDS011;52693;52.016;5.424;2022-08-19T06:02:12;0.10;;;0.10;;
65915;SDS011;52693;52.016;5.424;2022-08-19T06:04:39;0.30;;;0.30;;
65915;SDS011;52693;52.016;5.424;2022-08-19T06:07:10;0.20;;;0.20;;
65915;SDS011;52693;52.016;5.424;2022-08-19T06:09:38;0.52;;;0.52;;
65915;SDS011;52693;52.016;5.424;2022-08-19T06:12:06;2.05;;;0.90;;
65915;SDS011;52693;52.016;5.424;2022-08-19T06:14:33;0.32;;;0.28;;
65915;SDS011;52693;52.016;5.424;2022-08-19T06:17:05;0.63;;;0.63;;
65915;SDS011;52693;52.016;5.424;2022-08-19T06:19:32;0.75;;;0.75;;
65915;SDS011;52693;52.016;5.424;2022-08-19T06:21:59;0.45;;;0.45;;
65915;SDS011;52693;52.016;5.424;2022-08-19T06:24:28;0.17;;;0.17;;
65915;SDS011;52693;52.016;5.424;2022-08-19T06:26:55;0.68;;;0.68;;
65915;SDS011;52693;52.016;5.424;2022-08-19T06:29:27;0.35;;;0.35;;
65915;SDS011;52693;52.016;5.424;2022-08-19T06:31:54;0.75;;;0.75;;
65915;SDS011;52693;52.016;5.424;2022-08-19T06:34:23;0.60;;;0.60;;
65915;SDS011;52693;52.016;5.424;2022-08-19T06:36:50;0.40;;;0.40;;
65915;SDS011;52693;52.016;5.424;2022-08-19T06:39:19;1.77;;;0.38;;
65915;SDS011;52693;52.016;5.424;2022-08-19T06:41:47;1.92;;;1.75;;
65915;SDS011;52693;52.016;5.424;2022-08-19T06:44:19;0.65;;;0.57;;
65915;SDS011;52693;52.016;5.424;2022-08-19T06:46:46;0.63;;;0.63;;
65915;SDS011;52693;52.016;5.424;2022-08-19T06:49:20;1.00;;;0.88;;
65915;SDS011;52693;52.016;5.424;2022-08-19T06:51:47;1.70;;;1.55;;
65915;SDS011;52693;52.016;5.424;2022-08-19T06:54:15;1.60;;;1.50;;
65915;SDS011;52693;52.016;5.424;2022-08-19T06:56:45;1.42;;;1.33;;
65915;SDS011;52693;52.016;5.424;2022-08-19T06:59:13;1.90;;;1.25;;
65915;SDS011;52693;52.016;5.424;2022-08-19T07:01:42;1.58;;;1.45;;
65915;SDS011;52693;52.016;5.424;2022-08-19T07:04:12;1.98;;;1.77;;
65915;SDS011;52693;52.016;5.424;2022-08-19T07:06:40;3.50;;;1.80;;
65915;SDS011;52693;52.016;5.424;2022-08-19T07:09:10;1.02;;;0.93;;
65915;SDS011;52693;52.016;5.424;2022-08-19T07:11:37;1.98;;;1.42;;
65915;SDS011;52693;52.016;5.424;2022-08-19T07:14:04;0.90;;;0.90;;
65915;SDS011;52693;52.016;5.424;2022-08-19T07:16:44;1.73;;;1.63;;
65915;SDS011;52693;52.016;5.424;2022-08-19T07:19:12;1.10;;;0.80;;
65915;SDS011;52693;52.016;5.424;2022-08-19T07:21:41;0.40;;;0.40;;
65915;SDS011;52693;52.016;5.424;2022-08-19T07:24:07;2.30;;;0.95;;
65915;SDS011;52693;52.016;5.424;2022-08-19T07:26:37;8.70;;;1.10;;
65915;SDS011;52693;52.016;5.424;2022-08-19T07:29:08;1.38;;;1.20;;
65915;SDS011;52693;52.016;5.424;2022-08-19T07:31:34;2.28;;;1.00;;
65915;SDS011;52693;52.016;5.424;2022-08-19T07:34:04;1.33;;;0.98;;
65915;SDS011;52693;52.016;5.424;2022-08-19T07:36:35;2.38;;;1.75;;
65915;SDS011;52693;52.016;5.424;2022-08-19T07:39:03;1.52;;;1.42;;
65915;SDS011;52693;52.016;5.424;2022-08-19T07:41:30;0.40;;;0.40;;
65915;SDS011;52693;52.016;5.424;2022-08-19T07:43:58;0.95;;;0.85;;
65915;SDS011;52693;52.016;5.424;2022-08-19T07:46:24;2.83;;;2.58;;
65915;SDS011;52693;52.016;5.424;2022-08-19T07:48:52;7.72;;;2.53;;
65915;SDS011;52693;52.016;5.424;2022-08-19T07:51:20;2.50;;;1.88;;
65915;SDS011;52693;52.016;5.424;2022-08-19T07:54:02;2.63;;;1.08;;
65915;SDS011;52693;52.016;5.424;2022-08-19T07:56:29;3.08;;;2.88;;
65915;SDS011;52693;52.016;5.424;2022-08-19T07:58:56;2.88;;;1.98;;
65915;SDS011;52693;52.016;5.424;2022-08-19T08:01:23;8.50;;;2.42;;
65915;SDS011;52693;52.016;5.424;2022-08-19T08:03:51;1.35;;;1.00;;
65915;SDS011;52693;52.016;5.424;2022-08-19T08:06:37;2.92;;;1.15;;
65915;SDS011;52693;52.016;5.424;2022-08-19T08:09:23;1.23;;;1.13;;
65915;SDS011;52693;52.016;5.424;2022-08-19T08:11:52;2.42;;;2.30;;
65915;SDS011;52693;52.016;5.424;2022-08-19T08:14:21;2.25;;;2.08;;
65915;SDS011;52693;52.016;5.424;2022-08-19T08:17:00;0.93;;;0.93;;
65915;SDS011;52693;52.016;5.424;2022-08-19T08:19:27;3.05;;;0.77;;
65915;SDS011;52693;52.016;5.424;2022-08-19T08:21:55;0.80;;;0.80;;
65915;SDS011;52693;52.016;5.424;2022-08-19T08:24:23;0.90;;;0.75;;
65915;SDS011;52693;52.016;5.424;2022-08-19T08:26:54;1.40;;;0.75;;
65915;SDS011;52693;52.016;5.424;2022-08-19T08:29:23;1.08;;;0.88;;
65915;SDS011;52693;52.016;5.424;2022-08-19T08:31:51;2.80;;;1.25;;
65915;SDS011;52693;52.016;5.424;2022-08-19T08:34:25;0.82;;;0.82;;
65915;SDS011;52693;52.016;5.424;2022-08-19T08:36:51;3.15;;;0.95;;
65915;SDS011;52693;52.016;5.424;2022-08-19T08:39:19;0.88;;;0.85;;
65915;SDS011;52693;52.016;5.424;2022-08-19T08:44:17;1.45;;;0.85;;
65915;SDS011;52693;52.016;5.424;2022-08-19T08:46:48;0.80;;;0.80;;
65915;SDS011;52693;52.016;5.424;2022-08-19T08:51:48;0.60;;;0.60;;
65915;SDS011;52693;52.016;5.424;2022-08-19T08:54:25;1.15;;;1.08;;
65915;SDS011;52693;52.016;5.424;2022-08-19T08:56:53;0.73;;;0.70;;
65915;SDS011;52693;52.016;5.424;2022-08-19T09:01:50;2.92;;;1.38;;
65915;SDS011;52693;52.016;5.424;2022-08-19T09:04:16;0.57;;;0.57;;
65915;SDS011;52693;52.016;5.424;2022-08-19T09:10:07;0.22;;;0.22;;
65915;SDS011;52693;52.016;5.424;2022-08-19T09:15:25;0.80;;;0.80;;
65915;SDS011;52693;52.016;5.424;2022-08-19T09:18:03;0.32;;;0.32;;
65915;SDS011;52693;52.016;5.424;2022-08-19T09:20:32;0.65;;;0.65;;
65915;SDS011;52693;52.016;5.424;2022-08-19T09:22:59;1.42;;;1.33;;
65915;SDS011;52693;52.016;5.424;2022-08-19T09:25:25;7.63;;;0.70;;
65915;SDS011;52693;52.016;5.424;2022-08-19T09:27:54;1.13;;;1.05;;
65915;SDS011;52693;52.016;5.424;2022-08-19T09:30:33;3.33;;;1.13;;
65915;SDS011;52693;52.016;5.424;2022-08-19T09:33:00;0.73;;;0.65;;
65915;SDS011;52693;52.016;5.424;2022-08-19T09:35:27;4.32;;;0.75;;
65915;SDS011;52693;52.016;5.424;2022-08-19T09:37:56;3.92;;;1.10;;
65915;SDS011;52693;52.016;5.424;2022-08-19T09:40:25;6.13;;;1.05;;
65915;SDS011;52693;52.016;5.424;2022-08-19T09:42:55;1.23;;;1.00;;
65915;SDS011;52693;52.016;5.424;2022-08-19T09:45:23;1.48;;;1.38;;
65915;SDS011;52693;52.016;5.424;2022-08-19T09:47:50;0.73;;;0.73;;
65915;SDS011;52693;52.016;5.424;2022-08-19T09:50:19;0.50;;;0.50;;
65915;SDS011;52693;52.016;5.424;2022-08-19T09:52:46;1.67;;;1.30;;
65915;SDS011;52693;52.016;5.424;2022-08-19T09:55:23;0.63;;;0.63;;
65915;SDS011;52693;52.016;5.424;2022-08-19T09:57:57;2.83;;;1.58;;
65915;SDS011;52693;52.016;5.424;2022-08-19T10:00:23;0.98;;;0.82;;
65915;SDS011;52693;52.016;5.424;2022-08-19T10:02:51;0.43;;;0.40;;
65915;SDS011;52693;52.016;5.424;2022-08-19T10:05:18;0.55;;;0.40;;
65915;SDS011;52693;52.016;5.424;2022-08-19T10:08:07;0.82;;;0.75;;
65915;SDS011;52693;52.016;5.424;2022-08-19T10:10:39;1.80;;;0.52;;
65915;SDS011;52693;52.016;5.424;2022-08-19T10:13:08;1.02;;;1.02;;
65915;SDS011;52693;52.016;5.424;2022-08-19T10:15:34;0.95;;;0.60;;
65915;SDS011;52693;52.016;5.424;2022-08-19T10:18:13;0.35;;;0.35;;
65915;SDS011;52693;52.016;5.424;2022-08-19T10:20:40;0.90;;;0.80;;
65915;SDS011;52693;52.016;5.424;2022-08-19T10:23:08;0.57;;;0.57;;
65915;SDS011;52693;52.016;5.424;2022-08-19T10:25:35;0.10;;;0.10;;
65915;SDS011;52693;52.016;5.424;2022-08-19T10:28:03;0.43;;;0.43;;
65915;SDS011;52693;52.016;5.424;2022-08-19T10:30:35;0.57;;;0.55;;
65915;SDS011;52693;52.016;5.424;2022-08-19T10:33:02;1.88;;;0.57;;
65915;SDS011;52693;52.016;5.424;2022-08-19T10:35:35;2.28;;;0.73;;
65915;SDS011;52693;52.016;5.424;2022-08-19T10:38:22;1.27;;;0.63;;
65915;SDS011;52693;52.016;5.424;2022-08-19T10:40:58;0.73;;;0.73;;
65915;SDS011;52693;52.016;5.424;2022-08-19T10:43:24;4.60;;;0.95;;
65915;SDS011;52693;52.016;5.424;2022-08-19T10:45:54;1.42;;;0.55;;
65915;SDS011;52693;52.016;5.424;2022-08-19T10:48:28;0.88;;;0.80;;
65915;SDS011;52693;52.016;5.424;2022-08-19T10:50:56;0.82;;;0.82;;
65915;SDS011;52693;52.016;5.424;2022-08-19T10:53:48;0.60;;;0.60;;
65915;SDS011;52693;52.016;5.424;2022-08-19T10:56:15;5.32;;;2.10;;
65915;SDS011;52693;52.016;5.424;2022-08-19T10:59:00;0.95;;;0.95;;
65915;SDS011;52693;52.016;5.424;2022-08-19T11:01:27;3.25;;;1.17;;
65915;SDS011;52693;52.016;5.424;2022-08-19T11:03:56;1.20;;;0.95;;
65915;SDS011;52693;52.016;5.424;2022-08-19T11:06:23;0.68;;;0.68;;
65915;SDS011;52693;52.016;5.424;2022-08-19T11:08:51;1.48;;;1.08;;
65915;SDS011;52693;52.016;5.424;2022-08-19T11:11:18;0.93;;;0.80;;
65915;SDS011;52693;52.016;5.424;2022-08-19T11:13:44;1.55;;;1.38;;
65915;SDS011;52693;52.016;5.424;2022-08-19T11:16:17;2.20;;;1.67;;
65915;SDS011;52693;52.016;5.424;2022-08-19T11:18:45;1.20;;;0.90;;
65915;SDS011;52693;52.016;5.424;2022-08-19T11:21:14;0.90;;;0.90;;
65915;SDS011;52693;52.016;5.424;2022-08-19T11:23:43;1.00;;;1.00;;
65915;SDS011;52693;52.016;5.424;2022-08-19T11:26:09;3.28;;;1.23;;
65915;SDS011;52693;52.016;5.424;2022-08-19T11:28:36;0.90;;;0.90;;
65915;SDS011;52693;52.016;5.424;2022-08-19T11:31:04;8.70;;;1.55;;
65915;SDS011;52693;52.016;5.424;2022-08-19T11:33:30;3.17;;;1.83;;
65915;SDS011;52693;52.016;5.424;2022-08-19T11:35:58;2.17;;;2.00;;
65915;SDS011;52693;52.016;5.424;2022-08-19T11:38:25;0.82;;;0.77;;
65915;SDS011;52693;52.016;5.424;2022-08-19T11:40:55;1.30;;;1.00;;
65915;SDS011;52693;52.016;5.424;2022-08-19T11:43:22;1.73;;;1.58;;
65915;SDS011;52693;52.016;5.424;2022-08-19T11:45:48;1.55;;;1.45;;
65915;SDS011;52693;52.016;5.424;2022-08-19T11:48:15;3.03;;;1.63;;
65915;SDS011;52693;52.016;5.424;2022-08-19T11:50:41;7.47;;;1.45;;
65915;SDS011;52693;52.016;5.424;2022-08-19T11:53:09;3.63;;;2.15;;
65915;SDS011;52693;52.016;5.424;2022-08-19T11:55:37;4.13;;;1.38;;
65915;SDS011;52693;52.016;5.424;2022-08-19T11:58:09;4.93;;;0.57;;
65915;SDS011;52693;52.016;5.424;2022-08-19T12:00:44;7.47;;;2.95;;
65915;SDS011;52693;52.016;5.424;2022-08-19T12:03:12;3.03;;;2.83;;
65915;SDS011;52693;52.016;5.424;2022-08-19T12:05:39;3.40;;;0.93;;
65915;SDS011;52693;52.016;5.424;2022-08-19T12:08:06;2.40;;;1.50;;
65915;SDS011;52693;52.016;5.424;2022-08-19T12:10:33;1.17;;;1.15;;
65915;SDS011;52693;52.016;5.424;2022-08-19T12:13:00;1.35;;;1.25;;
65915;SDS011;52693;52.016;5.424;2022-08-19T12:15:27;1.55;;;1.45;;
65915;SDS011;52693;52.016;5.424;2022-08-19T12:18:02;1.05;;;1.05;;
65915;SDS011;52693;52.016;5.424;2022-08-19T12:20:28;2.08;;;1.23;;
65915;SDS011;52693;52.016;5.424;2022-08-19T12:22:55;0.73;;;0.73;;
65915;SDS011;52693;52.016;5.424;2022-08-19T12:25:21;3.13;;;1.15;;
65915;SDS011;52693;52.016;5.424;2022-08-19T12:27:48;0.63;;;0.63;;
65915;SDS011;52693;52.016;5.424;2022-08-19T12:30:23;1.42;;;0.98;;
65915;SDS011;52693;52.016;5.424;2022-08-19T12:32:50;0.77;;;0.77;;
65915;SDS011;52693;52.016;5.424;2022-08-19T12:35:17;0.90;;;0.88;;
65915;SDS011;52693;52.016;5.424;2022-08-19T12:37:47;0.50;;;0.50;;
65915;SDS011;52693;52.016;5.424;2022-08-19T12:40:22;0.95;;;0.95;;
65915;SDS011;52693;52.016;5.424;2022-08-19T12:42:52;0.45;;;0.45;;
65915;SDS011;52693;52.016;5.424;2022-08-19T12:45:19;0.45;;;0.45;;
65915;SDS011;52693;52.016;5.424;2022-08-19T12:47:46;0.20;;;0.20;;
65915;SDS011;52693;52.016;5.424;2022-08-19T12:50:12;0.47;;;0.47;;
65915;SDS011;52693;52.016;5.424;2022-08-19T12:52:39;3.63;;;2.25;;
65915;SDS011;52693;52.016;5.424;2022-08-19T12:55:08;0.98;;;0.88;;
65915;SDS011;52693;52.016;5.424;2022-08-19T12:57:34;0.47;;;0.47;;
65915;SDS011;52693;52.016;5.424;2022-08-19T13:00:09;1.05;;;1.05;;
65915;SDS011;52693;52.016;5.424;2022-08-19T13:02:39;1.67;;;0.45;;
65915;SDS011;52693;52.016;5.424;2022-08-19T13:05:08;0.32;;;0.32;;
65915;SDS011;52693;52.016;5.424;2022-08-19T13:07:35;1.15;;;1.05;;
65915;SDS011;52693;52.016;5.424;2022-08-19T13:10:03;1.13;;;0.98;;
65915;SDS011;52693;52.016;5.424;2022-08-19T13:12:30;0.13;;;0.13;;
65915;SDS011;52693;52.016;5.424;2022-08-19T13:14:56;0.45;;;0.45;;
65915;SDS011;52693;52.016;5.424;2022-08-19T13:17:23;0.57;;;0.43;;
65915;SDS011;52693;52.016;5.424;2022-08-19T13:19:50;0.10;;;0.10;;
65915;SDS011;52693;52.016;5.424;2022-08-19T13:22:17;0.60;;;0.30;;
65915;SDS011;52693;52.016;5.424;2022-08-19T13:24:43;0.20;;;0.20;;
65915;SDS011;52693;52.016;5.424;2022-08-19T13:27:14;18.73;;;1.25;;
65915;SDS011;52693;52.016;5.424;2022-08-19T13:29:40;0.28;;;0.28;;
65915;SDS011;52693;52.016;5.424;2022-08-19T13:32:26;1.20;;;0.55;;
65915;SDS011;52693;52.016;5.424;2022-08-19T13:35:11;1.30;;;1.20;;
65915;SDS011;52693;52.016;5.424;2022-08-19T13:37:42;0.52;;;0.52;;
65915;SDS011;52693;52.016;5.424;2022-08-19T13:40:19;0.88;;;0.40;;
65915;SDS011;52693;52.016;5.424;2022-08-19T13:42:47;5.47;;;1.23;;
65915;SDS011;52693;52.016;5.424;2022-08-19T13:45:14;0.98;;;0.73;;
65915;SDS011;52693;52.016;5.424;2022-08-19T13:47:41;0.32;;;0.32;;
65915;SDS011;52693;52.016;5.424;2022-08-19T13:50:11;0.60;;;0.60;;
65915;SDS011;52693;52.016;5.424;2022-08-19T13:52:39;0.30;;;0.30;;
65915;SDS011;52693;52.016;5.424;2022-08-19T13:55:05;1.08;;;0.95;;
65915;SDS011;52693;52.016;5.424;2022-08-19T13:57:32;0.73;;;0.73;;
65915;SDS011;52693;52.016;5.424;2022-08-19T13:59:59;0.28;;;0.28;;
65915;SDS011;52693;52.016;5.424;2022-08-19T14:02:25;1.27;;;0.85;;
65915;SDS011;52693;52.016;5.424;2022-08-19T14:04:52;0.10;;;0.10;;
65915;SDS011;52693;52.016;5.424;2022-08-19T14:07:20;0.38;;;0.38;;
65915;SDS011;52693;52.016;5.424;2022-08-19T14:09:50;0.10;;;0.10;;
65915;SDS011;52693;52.016;5.424;2022-08-19T14:12:22;0.20;;;0.20;;
65915;SDS011;52693;52.016;5.424;2022-08-19T14:14:54;0.10;;;0.10;;
65915;SDS011;52693;52.016;5.424;2022-08-19T14:17:20;0.00;;;0.00;;
65915;SDS011;52693;52.016;5.424;2022-08-19T14:19:49;0.60;;;0.60;;
65915;SDS011;52693;52.016;5.424;2022-08-19T14:22:16;0.10;;;0.10;;
65915;SDS011;52693;52.016;5.424;2022-08-19T14:24:47;0.17;;;0.17;;
65915;SDS011;52693;52.016;5.424;2022-08-19T14:27:14;0.40;;;0.35;;
65915;SDS011;52693;52.016;5.424;2022-08-19T14:29:40;1.33;;;0.57;;
65915;SDS011;52693;52.016;5.424;2022-08-19T14:32:09;0.25;;;0.25;;
65915;SDS011;52693;52.016;5.424;2022-08-19T14:34:41;0.28;;;0.28;;
65915;SDS011;52693;52.016;5.424;2022-08-19T14:37:07;0.30;;;0.30;;
65915;SDS011;52693;52.016;5.424;2022-08-19T14:39:42;0.52;;;0.32;;
65915;SDS011;52693;52.016;5.424;2022-08-19T14:42:11;0.20;;;0.20;;
65915;SDS011;52693;52.016;5.424;2022-08-19T14:44:37;0.00;;;0.00;;
65915;SDS011;52693;52.016;5.424;2022-08-19T14:47:04;0.20;;;0.20;;
65915;SDS011;52693;52.016;5.424;2022-08-19T14:49:35;0.17;;;0.17;;
65915;SDS011;52693;52.016;5.424;2022-08-19T14:52:09;0.10;;;0.10;;
65915;SDS011;52693;52.016;5.424;2022-08-19T14:54:36;0.30;;;0.30;;
65915;SDS011;52693;52.016;5.424;2022-08-19T14:57:02;0.20;;;0.20;;
65915;SDS011;52693;52.016;5.424;2022-08-19T14:59:32;0.20;;;0.20;;
65915;SDS011;52693;52.016;5.424;2022-08-19T15:02:00;0.43;;;0.43;;
65915;SDS011;52693;52.016;5.424;2022-08-19T15:04:46;0.75;;;0.75;;
65915;SDS011;52693;52.016;5.424;2022-08-19T15:07:24;0.10;;;0.10;;
65915;SDS011;52693;52.016;5.424;2022-08-19T15:09:55;1.67;;;1.15;;
65915;SDS011;52693;52.016;5.424;2022-08-19T15:12:22;2.92;;;0.82;;
65915;SDS011;52693;52.016;5.424;2022-08-19T15:14:50;0.13;;;0.13;;
65915;SDS011;52693;52.016;5.424;2022-08-19T15:17:21;0.25;;;0.10;;
65915;SDS011;52693;52.016;5.424;2022-08-19T15:20:07;0.10;;;0.10;;
65915;SDS011;52693;52.016;5.424;2022-08-19T15:22:34;0.30;;;0.30;;
65915;SDS011;52693;52.016;5.424;2022-08-19T15:25:04;0.10;;;0.10;;
65915;SDS011;52693;52.016;5.424;2022-08-19T15:27:32;0.32;;;0.10;;